sensor_id;sensor_type;location;lat;lon;timestamp;pressure;altitude;pressure_sealevel;temperature;humidity
55604;BME280;41468;48.838;9.330;2024-02-04T00:00:21;99451.44;;;8.67;90.15
55604;BME280;41468;48.838;9.330;2024-02-04T00:02:48;99439.91;;;8.70;88.53
55604;BME280;41468;48.838;9.330;2024-02-04T00:05:15;99429.63;;;8.75;88.74
55604;BME280;41468;48.838;9.330;2024-02-04T00:07:42;99437.78;;;8.75;88.76
55604;BME280;41468;48.838;9.330;2024-02-04T00:10:09;99429.19;;;8.73;89.20
55604;BME280;41468;48.838;9.330;2024-02-04T00:12:35;99422.91;;;8.73;87.94
55604;BME280;41468;48.838;9.330;2024-02-04T00:15:03;99415.34;;;8.78;87.82
55604;BME280;41468;48.838;9.330;2024-02-04T00:17:32;99398.22;;;8.78;87.97
55604;BME280;41468;48.838;9.330;2024-02-04T00:20:00;99388.78;;;8.75;87.65
55604;BME280;41468;48.838;9.330;2024-02-04T00:22:27;99387.31;;;8.78;87.89
55604;BME280;41468;48.838;9.330;2024-02-04T00:24:54;99378.06;;;8.70;88.73
55604;BME280;41468;48.838;9.330;2024-02-04T00:27:21;99377.44;;;8.73;88.04
55604;BME280;41468;48.838;9.330;2024-02-04T00:29:48;99381.81;;;8.66;88.52
55604;BME280;41468;48.838;9.330;2024-02-04T00:32:26;99390.75;;;8.66;88.70
55604;BME280;41468;48.838;9.330;2024-02-04T00:34:53;99392.09;;;8.60;89.36
55604;BME280;41468;48.838;9.330;2024-02-04T00:37:20;99389.19;;;8.65;88.59
55604;BME280;41468;48.838;9.330;2024-02-04T00:39:46;99386.63;;;8.60;88.83
55604;BME280;41468;48.838;9.330;2024-02-04T00:42:18;99384.84;;;8.64;88.15
55604;BME280;41468;48.838;9.330;2024-02-04T00:44:44;99402.97;;;8.60;88.73
55604;BME280;41468;48.838;9.330;2024-02-04T00:47:22;99391.41;;;8.63;88.72
55604;BME280;41468;48.838;9.330;2024-02-04T00:49:49;99390.47;;;8.59;89.65
55604;BME280;41468;48.838;9.330;2024-02-04T00:52:16;99389.00;;;8.61;89.48
55604;BME280;41468;48.838;9.330;2024-02-04T00:54:43;99390.75;;;8.66;88.60
55604;BME280;41468;48.838;9.330;2024-02-04T00:57:09;99400.31;;;8.72;88.67
55604;BME280;41468;48.838;9.330;2024-02-04T00:59:42;99399.66;;;8.75;87.97
55604;BME280;41468;48.838;9.330;2024-02-04T01:02:09;99399.22;;;8.73;88.60
55604;BME280;41468;48.838;9.330;2024-02-04T01:04:35;99395.41;;;8.66;87.96
55604;BME280;41468;48.838;9.330;2024-02-04T01:07:02;99399.13;;;8.61;88.81
55604;BME280;41468;48.838;9.330;2024-02-04T01:28:28;99384.00;;;8.72;89.90
55604;BME280;41468;48.838;9.330;2024-02-04T01:31:01;99386.25;;;8.70;90.43
55604;BME280;41468;48.838;9.330;2024-02-04T01:33:34;99381.44;;;8.67;89.51
55604;BME280;41468;48.838;9.330;2024-02-04T01:36:07;99384.03;;;8.63;90.57
55604;BME280;41468;48.838;9.330;2024-02-04T01:38:40;99382.25;;;8.68;91.20
55604;BME280;41468;48.838;9.330;2024-02-04T01:41:13;99383.50;;;8.70;89.56
55604;BME280;41468;48.838;9.330;2024-02-04T01:43:46;99375.81;;;8.72;88.42
55604;BME280;41468;48.838;9.330;2024-02-04T01:46:19;99379.13;;;8.87;87.34
55604;BME280;41468;48.838;9.330;2024-02-04T01:48:52;99386.88;;;8.97;86.35
55604;BME280;41468;48.838;9.330;2024-02-04T01:51:25;99386.47;;;8.86;87.48
55604;BME280;41468;48.838;9.330;2024-02-04T01:53:58;99382.97;;;8.85;88.05
55604;BME280;41468;48.838;9.330;2024-02-04T01:56:31;99379.81;;;8.75;88.12
55604;BME280;41468;48.838;9.330;2024-02-04T01:59:04;99384.34;;;8.62;89.49
55604;BME280;41468;48.838;9.330;2024-02-04T02:01:37;99384.19;;;8.67;89.54
55604;BME280;41468;48.838;9.330;2024-02-04T02:04:11;99388.50;;;8.68;89.60
55604;BME280;41468;48.838;9.330;2024-02-04T02:06:44;99386.91;;;8.67;89.05
55604;BME280;41468;48.838;9.330;2024-02-04T02:09:23;99391.69;;;8.70;89.48
55604;BME280;41468;48.838;9.330;2024-02-04T02:12:01;99386.91;;;8.67;89.50
55604;BME280;41468;48.838;9.330;2024-02-04T02:14:32;99378.59;;;8.63;89.27
55604;BME280;41468;48.838;9.330;2024-02-04T02:17:04;99379.88;;;8.66;88.99
55604;BME280;41468;48.838;9.330;2024-02-04T02:20:04;99377.31;;;8.61;87.92
55604;BME280;41468;48.838;9.330;2024-02-04T02:22:47;99372.38;;;8.63;88.67
55604;BME280;41468;48.838;9.330;2024-02-04T02:25:16;99378.91;;;8.62;89.47
55604;BME280;41468;48.838;9.330;2024-02-04T02:27:49;99379.56;;;8.59;90.02
55604;BME280;41468;48.838;9.330;2024-02-04T02:30:18;99390.81;;;8.57;90.65
55604;BME280;41468;48.838;9.330;2024-02-04T02:32:45;99381.19;;;8.60;89.65
55604;BME280;41468;48.838;9.330;2024-02-04T02:35:14;99390.81;;;8.57;88.90
55604;BME280;41468;48.838;9.330;2024-02-04T02:37:50;99385.97;;;8.63;88.85
55604;BME280;41468;48.838;9.330;2024-02-04T02:40:29;99385.19;;;8.62;88.04
55604;BME280;41468;48.838;9.330;2024-02-04T02:42:57;99387.09;;;8.62;89.53
55604;BME280;41468;48.838;9.330;2024-02-04T02:45:26;99379.53;;;8.68;88.04
55604;BME280;41468;48.838;9.330;2024-02-04T02:47:54;99376.47;;;8.69;88.06
55604;BME280;41468;48.838;9.330;2024-02-04T02:50:21;99376.66;;;8.64;88.07
55604;BME280;41468;48.838;9.330;2024-02-04T02:52:48;99373.28;;;8.67;87.70
55604;BME280;41468;48.838;9.330;2024-02-04T02:55:15;99375.41;;;8.61;88.04
55604;BME280;41468;48.838;9.330;2024-02-04T02:57:42;99371.22;;;8.64;88.41
55604;BME280;41468;48.838;9.330;2024-02-04T03:00:09;99366.31;;;8.57;88.00
55604;BME280;41468;48.838;9.330;2024-02-04T03:02:36;99374.78;;;8.56;88.08
55604;BME280;41468;48.838;9.330;2024-02-04T03:05:02;99372.06;;;8.56;88.25
55604;BME280;41468;48.838;9.330;2024-02-04T03:07:41;99367.94;;;8.50;88.22
55604;BME280;41468;48.838;9.330;2024-02-04T03:10:08;99376.59;;;8.43;88.59
55604;BME280;41468;48.838;9.330;2024-02-04T03:12:35;99362.03;;;8.48;89.16
55604;BME280;41468;48.838;9.330;2024-02-04T03:15:02;99364.38;;;8.58;88.26
55604;BME280;41468;48.838;9.330;2024-02-04T03:17:29;99365.69;;;8.52;89.44
55604;BME280;41468;48.838;9.330;2024-02-04T03:19:56;99356.56;;;8.48;89.46
55604;BME280;41468;48.838;9.330;2024-02-04T03:22:23;99357.38;;;8.48;89.38
55604;BME280;41468;48.838;9.330;2024-02-04T03:25:00;99363.78;;;8.52;89.51
55604;BME280;41468;48.838;9.330;2024-02-04T03:27:27;99359.44;;;8.51;89.98
55604;BME280;41468;48.838;9.330;2024-02-04T03:29:54;99359.97;;;8.45;89.08
55604;BME280;41468;48.838;9.330;2024-02-04T03:32:20;99356.28;;;8.40;89.51
55604;BME280;41468;48.838;9.330;2024-02-04T03:34:47;99362.19;;;8.43;89.18
55604;BME280;41468;48.838;9.330;2024-02-04T03:37:14;99353.00;;;8.56;88.54
55604;BME280;41468;48.838;9.330;2024-02-04T03:39:41;99359.63;;;8.46;88.97
55604;BME280;41468;48.838;9.330;2024-02-04T03:42:27;99371.31;;;8.47;89.38
55604;BME280;41468;48.838;9.330;2024-02-04T03:44:55;99368.91;;;8.45;89.15
55604;BME280;41468;48.838;9.330;2024-02-04T03:47:22;99369.72;;;8.46;89.73
55604;BME280;41468;48.838;9.330;2024-02-04T03:49:49;99366.19;;;8.45;89.18
55604;BME280;41468;48.838;9.330;2024-02-04T03:52:15;99362.19;;;8.43;89.61
55604;BME280;41468;48.838;9.330;2024-02-04T03:54:42;99362.81;;;8.48;88.84
55604;BME280;41468;48.838;9.330;2024-02-04T03:57:09;99361.25;;;8.38;89.49
55604;BME280;41468;48.838;9.330;2024-02-04T03:59:35;99350.22;;;8.44;89.75
55604;BME280;41468;48.838;9.330;2024-02-04T04:02:02;99350.00;;;8.49;89.00
55604;BME280;41468;48.838;9.330;2024-02-04T04:04:29;99353.19;;;8.51;89.24
55604;BME280;41468;48.838;9.330;2024-02-04T04:06:56;99357.91;;;8.42;90.17
55604;BME280;41468;48.838;9.330;2024-02-04T04:09:23;99358.34;;;8.35;91.10
55604;BME280;41468;48.838;9.330;2024-02-04T04:11:50;99368.94;;;8.36;90.57
55604;BME280;41468;48.838;9.330;2024-02-04T04:14:16;99355.66;;;8.44;90.53
55604;BME280;41468;48.838;9.330;2024-02-04T04:16:43;99359.63;;;8.46;89.75
55604;BME280;41468;48.838;9.330;2024-02-04T04:19:10;99367.66;;;8.43;90.03
55604;BME280;41468;48.838;9.330;2024-02-04T04:21:37;99370.22;;;8.39;90.89
55604;BME280;41468;48.838;9.330;2024-02-04T04:24:04;99368.91;;;8.45;91.25
55604;BME280;41468;48.838;9.330;2024-02-04T04:26:31;99372.59;;;8.40;90.35
55604;BME280;41468;48.838;9.330;2024-02-04T04:28:58;99376.94;;;8.42;90.42
55604;BME280;41468;48.838;9.330;2024-02-04T04:31:25;99372.28;;;8.42;89.77
55604;BME280;41468;48.838;9.330;2024-02-04T04:33:51;99375.16;;;8.46;89.85
55604;BME280;41468;48.838;9.330;2024-02-04T04:36:20;99381.25;;;8.43;89.98
55604;BME280;41468;48.838;9.330;2024-02-04T04:38:47;99381.72;;;8.45;90.03
55604;BME280;41468;48.838;9.330;2024-02-04T04:41:17;99373.56;;;8.45;89.97
55604;BME280;41468;48.838;9.330;2024-02-04T04:43:43;99372.25;;;8.51;89.76
55604;BME280;41468;48.838;9.330;2024-02-04T04:46:10;99365.31;;;8.62;89.56
55604;BME280;41468;48.838;9.330;2024-02-04T04:48:37;99359.63;;;8.46;90.21
55604;BME280;41468;48.838;9.330;2024-02-04T04:51:07;99367.34;;;8.44;90.14
55604;BME280;41468;48.838;9.330;2024-02-04T04:53:34;99370.31;;;8.51;89.98
55604;BME280;41468;48.838;9.330;2024-02-04T04:56:01;99379.97;;;8.40;91.13
55604;BME280;41468;48.838;9.330;2024-02-04T04:58:28;99379.81;;;8.36;92.50
55604;BME280;41468;48.838;9.330;2024-02-04T05:00:55;99385.56;;;8.35;92.30
55604;BME280;41468;48.838;9.330;2024-02-04T05:03:22;99382.84;;;8.35;93.10
55604;BME280;41468;48.838;9.330;2024-02-04T05:05:48;99379.81;;;8.36;92.63
55604;BME280;41468;48.838;9.330;2024-02-04T05:08:15;99366.88;;;8.33;92.68
55604;BME280;41468;48.838;9.330;2024-02-04T05:10:42;99369.41;;;8.38;92.17
55604;BME280;41468;48.838;9.330;2024-02-04T05:13:09;99372.13;;;8.38;92.26
55604;BME280;41468;48.838;9.330;2024-02-04T05:15:35;99362.84;;;8.39;92.34
55604;BME280;41468;48.838;9.330;2024-02-04T05:18:02;99375.97;;;8.37;91.67
55604;BME280;41468;48.838;9.330;2024-02-04T05:20:31;99378.53;;;8.43;91.48
55604;BME280;41468;48.838;9.330;2024-02-04T05:22:58;99387.50;;;8.34;93.21
55604;BME280;41468;48.838;9.330;2024-02-04T05:25:24;99388.63;;;8.33;92.53
55604;BME280;41468;48.838;9.330;2024-02-04T05:27:52;99381.41;;;8.37;93.30
55604;BME280;41468;48.838;9.330;2024-02-04T05:30:18;99370.66;;;8.50;91.38
55604;BME280;41468;48.838;9.330;2024-02-04T05:32:45;99372.13;;;8.38;91.24
55604;BME280;41468;48.838;9.330;2024-02-04T05:35:12;99388.47;;;8.30;92.92
55604;BME280;41468;48.838;9.330;2024-02-04T05:37:39;99378.53;;;8.34;93.08
55604;BME280;41468;48.838;9.330;2024-02-04T05:40:06;99376.97;;;8.33;92.76
55604;BME280;41468;48.838;9.330;2024-02-04T05:42:33;99375.22;;;8.28;93.51
55604;BME280;41468;48.838;9.330;2024-02-04T05:45:02;99372.31;;;8.33;93.13
55604;BME280;41468;48.838;9.330;2024-02-04T05:47:29;99391.38;;;8.25;93.09
55604;BME280;41468;48.838;9.330;2024-02-04T05:49:56;99391.53;;;8.28;93.44
55604;BME280;41468;48.838;9.330;2024-02-04T05:52:23;99387.53;;;8.26;93.77
55604;BME280;41468;48.838;9.330;2024-02-04T05:54:50;99391.22;;;8.21;94.07
55604;BME280;41468;48.838;9.330;2024-02-04T05:57:17;99386.41;;;8.27;94.30
55604;BME280;41468;48.838;9.330;2024-02-04T05:59:43;99397.00;;;8.19;93.74
55604;BME280;41468;48.838;9.330;2024-02-04T06:02:10;99399.88;;;8.23;93.76
55604;BME280;41468;48.838;9.330;2024-02-04T06:04:37;99398.28;;;8.22;93.99
55604;BME280;41468;48.838;9.330;2024-02-04T06:07:06;99400.31;;;8.34;92.82
55604;BME280;41468;48.838;9.330;2024-02-04T06:09:33;99387.19;;;8.36;92.40
55604;BME280;41468;48.838;9.330;2024-02-04T06:12:00;99381.56;;;8.32;92.70
55604;BME280;41468;48.838;9.330;2024-02-04T06:14:26;99391.19;;;8.30;93.83
55604;BME280;41468;48.838;9.330;2024-02-04T06:16:53;99396.63;;;8.38;92.31
55604;BME280;41468;48.838;9.330;2024-02-04T06:19:20;99388.47;;;8.30;93.09
55604;BME280;41468;48.838;9.330;2024-02-04T06:21:46;99404.00;;;8.29;93.02
55604;BME280;41468;48.838;9.330;2024-02-04T06:24:13;99400.19;;;8.30;92.80
55604;BME280;41468;48.838;9.330;2024-02-04T06:26:40;99395.19;;;8.32;92.37
55604;BME280;41468;48.838;9.330;2024-02-04T06:29:07;99408.00;;;8.32;91.61
55604;BME280;41468;48.838;9.330;2024-02-04T06:31:34;99393.59;;;8.31;91.89
55604;BME280;41468;48.838;9.330;2024-02-04T06:34:01;99387.97;;;8.36;91.33
55604;BME280;41468;48.838;9.330;2024-02-04T06:36:28;99387.34;;;8.39;90.83
55604;BME280;41468;48.838;9.330;2024-02-04T06:38:55;99384.13;;;8.37;90.72
55604;BME280;41468;48.838;9.330;2024-02-04T06:41:21;99396.81;;;8.33;90.91
55604;BME280;41468;48.838;9.330;2024-02-04T06:43:48;99401.28;;;8.29;91.12
55604;BME280;41468;48.838;9.330;2024-02-04T06:46:24;99407.53;;;8.30;91.40
55604;BME280;41468;48.838;9.330;2024-02-04T06:48:55;99405.63;;;8.30;90.98
55604;BME280;41468;48.838;9.330;2024-02-04T06:51:22;99409.94;;;8.31;90.74
55604;BME280;41468;48.838;9.330;2024-02-04T06:53:49;99422.78;;;8.22;90.90
55604;BME280;41468;48.838;9.330;2024-02-04T06:56:16;99417.00;;;8.24;90.80
55604;BME280;41468;48.838;9.330;2024-02-04T06:58:43;99412.81;;;8.26;91.04
55604;BME280;41468;48.838;9.330;2024-02-04T07:01:10;99412.50;;;8.28;90.87
55604;BME280;41468;48.838;9.330;2024-02-04T07:03:37;99407.69;;;8.25;90.34
55604;BME280;41468;48.838;9.330;2024-02-04T07:06:04;99404.69;;;8.17;91.26
55604;BME280;41468;48.838;9.330;2024-02-04T07:08:31;99399.75;;;8.19;91.30
55604;BME280;41468;48.838;9.330;2024-02-04T07:10:58;99391.41;;;8.16;91.66
55604;BME280;41468;48.838;9.330;2024-02-04T07:13:26;99382.94;;;8.17;92.03
55604;BME280;41468;48.838;9.330;2024-02-04T07:15:52;99393.28;;;8.24;91.39
55604;BME280;41468;48.838;9.330;2024-02-04T07:18:21;99389.31;;;8.22;91.97
55604;BME280;41468;48.838;9.330;2024-02-04T07:20:48;99387.03;;;8.32;91.86
55604;BME280;41468;48.838;9.330;2024-02-04T07:23:15;99396.19;;;8.28;91.75
55604;BME280;41468;48.838;9.330;2024-02-04T07:25:42;99375.34;;;8.32;91.17
55604;BME280;41468;48.838;9.330;2024-02-04T07:28:09;99380.81;;;8.23;91.34
55604;BME280;41468;48.838;9.330;2024-02-04T07:30:36;99387.53;;;8.26;90.93
55604;BME280;41468;48.838;9.330;2024-02-04T07:33:03;99383.66;;;8.35;90.89
55604;BME280;41468;48.838;9.330;2024-02-04T07:35:30;99379.81;;;8.36;90.66
55604;BME280;41468;48.838;9.330;2024-02-04T07:37:56;99380.47;;;8.33;90.60
55604;BME280;41468;48.838;9.330;2024-02-04T07:40:23;99388.09;;;8.49;90.02
55604;BME280;41468;48.838;9.330;2024-02-04T07:42:50;99388.31;;;8.44;90.20
55604;BME280;41468;48.838;9.330;2024-02-04T07:45:16;99398.38;;;8.43;90.41
55604;BME280;41468;48.838;9.330;2024-02-04T07:47:43;99396.78;;;8.42;90.37
55604;BME280;41468;48.838;9.330;2024-02-04T07:50:10;99393.75;;;8.44;90.54
55604;BME280;41468;48.838;9.330;2024-02-04T07:52:37;99399.47;;;8.51;91.21
55604;BME280;41468;48.838;9.330;2024-02-04T07:55:07;99392.63;;;8.45;90.11
55604;BME280;41468;48.838;9.330;2024-02-04T07:57:34;99387.94;;;8.54;89.68
55604;BME280;41468;48.838;9.330;2024-02-04T08:00:01;99384.28;;;8.50;89.74
55604;BME280;41468;48.838;9.330;2024-02-04T08:02:31;99374.19;;;8.50;90.22
55604;BME280;41468;48.838;9.330;2024-02-04T08:04:58;99370.19;;;8.48;89.71
55604;BME280;41468;48.838;9.330;2024-02-04T08:07:25;99356.22;;;8.58;89.78
55604;BME280;41468;48.838;9.330;2024-02-04T08:09:52;99356.16;;;8.67;89.56
55604;BME280;41468;48.838;9.330;2024-02-04T08:12:19;99359.34;;;8.69;88.58
55604;BME280;41468;48.838;9.330;2024-02-04T08:14:46;99364.44;;;8.70;88.97
55604;BME280;41468;48.838;9.330;2024-02-04T08:17:12;99361.53;;;8.75;88.29
55604;BME280;41468;48.838;9.330;2024-02-04T08:19:39;99369.53;;;8.80;87.77
55604;BME280;41468;48.838;9.330;2024-02-04T08:22:06;99378.41;;;8.69;88.02
55604;BME280;41468;48.838;9.330;2024-02-04T08:24:33;99373.75;;;8.69;88.21
55604;BME280;41468;48.838;9.330;2024-02-04T08:27:00;99372.31;;;8.72;88.45
55604;BME280;41468;48.838;9.330;2024-02-04T08:29:27;99377.75;;;8.72;88.26
55604;BME280;41468;48.838;9.330;2024-02-04T08:31:54;99382.41;;;8.71;88.40
55604;BME280;41468;48.838;9.330;2024-02-04T08:34:20;99383.38;;;8.67;89.42
55604;BME280;41468;48.838;9.330;2024-02-04T08:36:50;99384.53;;;8.66;89.04
55604;BME280;41468;48.838;9.330;2024-02-04T08:39:18;99393.97;;;8.68;89.33
55604;BME280;41468;48.838;9.330;2024-02-04T08:41:44;99388.03;;;8.66;89.85
55604;BME280;41468;48.838;9.330;2024-02-04T08:44:11;99385.88;;;8.80;89.77
55604;BME280;41468;48.838;9.330;2024-02-04T08:46:48;99383.94;;;8.81;88.70
55604;BME280;41468;48.838;9.330;2024-02-04T08:49:15;99389.72;;;8.79;88.10
55604;BME280;41468;48.838;9.330;2024-02-04T08:51:42;99386.63;;;8.90;87.98
55604;BME280;41468;48.838;9.330;2024-02-04T08:54:19;99379.91;;;8.87;88.38
55604;BME280;41468;48.838;9.330;2024-02-04T08:56:46;99384.09;;;8.84;87.64
55604;BME280;41468;48.838;9.330;2024-02-04T08:59:13;99381.31;;;8.93;87.68
55604;BME280;41468;48.838;9.330;2024-02-04T09:01:40;99380.16;;;8.94;87.28
55604;BME280;41468;48.838;9.330;2024-02-04T09:04:06;99381.63;;;8.92;87.67
55604;BME280;41468;48.838;9.330;2024-02-04T09:06:34;99377.31;;;8.91;87.62
55604;BME280;41468;48.838;9.330;2024-02-04T09:09:00;99367.88;;;8.88;87.47
55604;BME280;41468;48.838;9.330;2024-02-04T09:11:27;99369.28;;;8.94;87.41
55604;BME280;41468;48.838;9.330;2024-02-04T09:13:54;99377.59;;;8.98;86.85
55604;BME280;41468;48.838;9.330;2024-02-04T09:16:21;99376.66;;;8.94;87.67
55604;BME280;41468;48.838;9.330;2024-02-04T09:18:48;99375.78;;;9.02;87.23
55604;BME280;41468;48.838;9.330;2024-02-04T09:21:15;99372.16;;;8.98;87.07
55604;BME280;41468;48.838;9.330;2024-02-04T09:23:42;99384.31;;;9.00;87.33
55604;BME280;41468;48.838;9.330;2024-02-04T09:26:09;99383.50;;;9.00;88.04
55604;BME280;41468;48.838;9.330;2024-02-04T09:28:36;99395.88;;;8.97;88.39
55604;BME280;41468;48.838;9.330;2024-02-04T09:31:07;99395.03;;;9.05;88.45
55604;BME280;41468;48.838;9.330;2024-02-04T09:33:34;99403.81;;;9.11;87.76
55604;BME280;41468;48.838;9.330;2024-02-04T09:36:03;99397.22;;;9.12;87.52
55604;BME280;41468;48.838;9.330;2024-02-04T09:38:31;99388.84;;;9.17;88.69
55604;BME280;41468;48.838;9.330;2024-02-04T09:40:57;99383.41;;;9.17;87.66
55604;BME280;41468;48.838;9.330;2024-02-04T09:43:25;99382.25;;;9.18;86.66
55604;BME280;41468;48.838;9.330;2024-02-04T09:45:52;99382.41;;;9.22;86.67
55604;BME280;41468;48.838;9.330;2024-02-04T09:48:19;99378.63;;;9.35;86.40
55604;BME280;41468;48.838;9.330;2024-02-04T09:50:48;99390.97;;;9.33;85.46
55604;BME280;41468;48.838;9.330;2024-02-04T09:53:21;99388.69;;;9.35;85.99
55604;BME280;41468;48.838;9.330;2024-02-04T09:55:53;99384.19;;;9.39;85.93
55604;BME280;41468;48.838;9.330;2024-02-04T09:58:21;99369.00;;;9.50;85.32
55604;BME280;41468;48.838;9.330;2024-02-04T10:00:50;99363.28;;;9.64;85.35
55604;BME280;41468;48.838;9.330;2024-02-04T10:03:28;99358.53;;;9.73;85.06
55604;BME280;41468;48.838;9.330;2024-02-04T10:05:56;99354.13;;;9.81;84.66
55604;BME280;41468;48.838;9.330;2024-02-04T10:08:23;99345.06;;;9.89;83.90
55604;BME280;41468;48.838;9.330;2024-02-04T10:10:50;99341.44;;;9.97;82.95
55604;BME280;41468;48.838;9.330;2024-02-04T10:13:17;99339.63;;;10.01;82.10
55604;BME280;41468;48.838;9.330;2024-02-04T10:15:44;99346.94;;;10.22;82.53
55604;BME280;41468;48.838;9.330;2024-02-04T10:18:11;99338.53;;;10.27;82.89
55604;BME280;41468;48.838;9.330;2024-02-04T10:20:38;99331.69;;;10.21;81.16
55604;BME280;41468;48.838;9.330;2024-02-04T10:23:04;99327.94;;;10.25;81.00
55604;BME280;41468;48.838;9.330;2024-02-04T10:25:31;99318.50;;;10.23;80.49
55604;BME280;41468;48.838;9.330;2024-02-04T10:27:58;99318.84;;;10.21;81.11
55604;BME280;41468;48.838;9.330;2024-02-04T10:30:26;99328.72;;;10.26;82.61
55604;BME280;41468;48.838;9.330;2024-02-04T10:32:53;99331.69;;;10.21;81.75
55604;BME280;41468;48.838;9.330;2024-02-04T10:35:21;99337.59;;;10.23;82.59
55604;BME280;41468;48.838;9.330;2024-02-04T10:37:52;99345.28;;;10.29;82.22
55604;BME280;41468;48.838;9.330;2024-02-04T10:40:23;99335.25;;;10.33;82.87
55604;BME280;41468;48.838;9.330;2024-02-04T10:42:52;99334.00;;;10.31;81.36
55604;BME280;41468;48.838;9.330;2024-02-04T10:45:30;99326.38;;;10.36;82.69
55604;BME280;41468;48.838;9.330;2024-02-04T10:48:01;99324.81;;;10.48;83.82
55604;BME280;41468;48.838;9.330;2024-02-04T10:50:28;99337.19;;;10.57;83.23
55604;BME280;41468;48.838;9.330;2024-02-04T10:52:58;99329.91;;;10.61;83.29
55604;BME280;41468;48.838;9.330;2024-02-04T10:55:30;99334.44;;;10.57;83.90
55604;BME280;41468;48.838;9.330;2024-02-04T10:57:58;99337.88;;;10.67;84.25
55604;BME280;41468;48.838;9.330;2024-02-04T11:00:25;99326.25;;;10.70;83.45
55604;BME280;41468;48.838;9.330;2024-02-04T11:02:54;99318.28;;;10.65;82.70
55604;BME280;41468;48.838;9.330;2024-02-04T11:05:22;99321.72;;;10.61;82.25
55604;BME280;41468;48.838;9.330;2024-02-04T11:07:50;99320.78;;;10.70;83.10
55604;BME280;41468;48.838;9.330;2024-02-04T11:10:17;99315.66;;;10.68;82.93
55604;BME280;41468;48.838;9.330;2024-02-04T11:12:46;99303.72;;;10.73;83.18
55604;BME280;41468;48.838;9.330;2024-02-04T11:15:16;99298.44;;;10.80;82.47
55604;BME280;41468;48.838;9.330;2024-02-04T11:23:44;99305.66;;;11.13;81.00
55604;BME280;41468;48.838;9.330;2024-02-04T11:26:15;99310.44;;;11.16;81.03
55604;BME280;41468;48.838;9.330;2024-02-04T11:28:47;99301.78;;;11.14;81.31
55604;BME280;41468;48.838;9.330;2024-02-04T11:31:17;99311.47;;;11.11;81.05
55604;BME280;41468;48.838;9.330;2024-02-04T11:33:45;99303.75;;;11.01;80.99
55604;BME280;41468;48.838;9.330;2024-02-04T11:36:13;99302.97;;;11.00;81.38
55604;BME280;41468;48.838;9.330;2024-02-04T11:38:41;99302.66;;;10.90;81.44
55604;BME280;41468;48.838;9.330;2024-02-04T11:41:08;99294.13;;;10.91;81.41
55604;BME280;41468;48.838;9.330;2024-02-04T11:43:36;99288.88;;;10.86;81.80
55604;BME280;41468;48.838;9.330;2024-02-04T11:46:16;99274.31;;;10.82;81.67
55604;BME280;41468;48.838;9.330;2024-02-04T11:48:51;99270.88;;;10.85;82.11
55604;BME280;41468;48.838;9.330;2024-02-04T11:51:23;99266.66;;;10.88;81.45
55604;BME280;41468;48.838;9.330;2024-02-04T11:53:51;99262.34;;;10.87;82.02
55604;BME280;41468;48.838;9.330;2024-02-04T11:56:18;99265.44;;;10.85;81.46
55604;BME280;41468;48.838;9.330;2024-02-04T11:58:46;99271.34;;;10.87;82.76
55604;BME280;41468;48.838;9.330;2024-02-04T12:01:13;99261.81;;;10.81;81.62
55604;BME280;41468;48.838;9.330;2024-02-04T12:03:40;99249.63;;;10.78;81.95
55604;BME280;41468;48.838;9.330;2024-02-04T12:06:07;99247.91;;;10.86;81.40
55604;BME280;41468;48.838;9.330;2024-02-04T12:08:35;99236.97;;;10.86;81.46
55604;BME280;41468;48.838;9.330;2024-02-04T12:11:02;99229.31;;;10.92;80.97
55604;BME280;41468;48.838;9.330;2024-02-04T12:13:30;99234.31;;;11.02;81.36
55604;BME280;41468;48.838;9.330;2024-02-04T12:15:57;99232.66;;;11.13;80.97
55604;BME280;41468;48.838;9.330;2024-02-04T12:18:24;99233.53;;;11.17;81.00
55604;BME280;41468;48.838;9.330;2024-02-04T12:20:51;99227.59;;;11.43;83.52
55604;BME280;41468;48.838;9.330;2024-02-04T12:23:18;99227.78;;;11.50;79.57
55604;BME280;41468;48.838;9.330;2024-02-04T12:25:45;99221.69;;;11.57;78.85
55604;BME280;41468;48.838;9.330;2024-02-04T12:28:13;99224.25;;;11.66;79.19
55604;BME280;41468;48.838;9.330;2024-02-04T12:30:41;99223.31;;;11.58;78.93
55604;BME280;41468;48.838;9.330;2024-02-04T12:33:07;99228.91;;;11.49;80.22
55604;BME280;41468;48.838;9.330;2024-02-04T12:35:36;99224.41;;;11.41;79.81
55604;BME280;41468;48.838;9.330;2024-02-04T12:38:03;99231.03;;;11.40;80.22
55604;BME280;41468;48.838;9.330;2024-02-04T12:40:30;99226.09;;;11.46;79.82
55604;BME280;41468;48.838;9.330;2024-02-04T12:43:02;99232.63;;;11.41;80.60
55604;BME280;41468;48.838;9.330;2024-02-04T12:45:32;99229.34;;;11.36;79.54
55604;BME280;41468;48.838;9.330;2024-02-04T12:48:01;99219.66;;;11.38;80.20
55604;BME280;41468;48.838;9.330;2024-02-04T12:50:28;99215.94;;;11.46;80.19
55604;BME280;41468;48.838;9.330;2024-02-04T12:53:03;99215.34;;;11.53;79.49
55604;BME280;41468;48.838;9.330;2024-02-04T12:55:34;99212.00;;;11.60;79.19
55604;BME280;41468;48.838;9.330;2024-02-04T12:58:06;99205.81;;;11.63;80.23
55604;BME280;41468;48.838;9.330;2024-02-04T13:00:35;99202.38;;;11.66;80.14
55604;BME280;41468;48.838;9.330;2024-02-04T13:03:04;99208.75;;;11.70;78.25
55604;BME280;41468;48.838;9.330;2024-02-04T13:05:31;99210.69;;;11.54;78.91
55604;BME280;41468;48.838;9.330;2024-02-04T13:07:59;99202.22;;;11.59;78.31
55604;BME280;41468;48.838;9.330;2024-02-04T13:10:33;99202.09;;;11.55;78.53
55604;BME280;41468;48.838;9.330;2024-02-04T13:13:01;99209.34;;;11.47;78.88
55604;BME280;41468;48.838;9.330;2024-02-04T13:15:31;99201.81;;;11.44;79.08
55604;BME280;41468;48.838;9.330;2024-02-04T13:17:58;99205.28;;;11.41;79.86
55604;BME280;41468;48.838;9.330;2024-02-04T13:20:26;99197.06;;;11.41;80.13
55604;BME280;41468;48.838;9.330;2024-02-04T13:22:56;99199.28;;;11.36;80.71
55604;BME280;41468;48.838;9.330;2024-02-04T13:25:34;99199.28;;;11.36;80.07
55604;BME280;41468;48.838;9.330;2024-02-04T13:28:01;99200.22;;;11.27;79.78
55604;BME280;41468;48.838;9.330;2024-02-04T13:30:29;99209.59;;;11.26;80.96
55604;BME280;41468;48.838;9.330;2024-02-04T13:32:56;99210.63;;;11.22;80.71
55604;BME280;41468;48.838;9.330;2024-02-04T13:35:24;99208.09;;;11.29;81.38
55604;BME280;41468;48.838;9.330;2024-02-04T13:37:51;99207.63;;;11.27;81.81